createdAt,value
2022-07-25T00:02:49.741Z,42.27
2022-07-25T00:07:56.155Z,42.26
2022-07-25T00:13:01.644Z,42.43
2022-07-25T00:18:07.213Z,42.45
2022-07-25T00:23:12.635Z,42.61
2022-07-25T00:28:18.081Z,42.73
2022-07-25T00:33:23.596Z,42.82
2022-07-25T00:38:29.183Z,42.98
2022-07-25T00:43:35.016Z,43.06
2022-07-25T00:48:40.662Z,43.02
2022-07-25T00:53:46.597Z,43.19
2022-07-25T00:58:52.824Z,43.15
2022-07-25T01:03:58.495Z,43.28
2022-07-25T01:09:04.759Z,43.37
2022-07-25T01:14:10.315Z,43.35
2022-07-25T01:19:15.772Z,43.52
2022-07-25T01:24:21.213Z,43.55
2022-07-25T01:29:26.722Z,43.53
2022-07-25T01:34:32.278Z,43.63
2022-07-25T01:39:37.707Z,43.62
2022-07-25T01:44:43.313Z,43.59
2022-07-25T01:49:49.118Z,43.51
2022-07-25T01:54:54.535Z,43.41
2022-07-25T02:00:00.793Z,43.35
2022-07-25T02:05:11.352Z,43.34
2022-07-25T02:10:16.843Z,43.29
2022-07-25T02:15:22.270Z,43.28
2022-07-25T02:20:27.849Z,43.22
2022-07-25T02:25:34.393Z,43.15
2022-07-25T02:30:40.313Z,43.22
2022-07-25T02:35:45.860Z,43.20
2022-07-25T02:40:52.622Z,43.24
2022-07-25T02:45:58.287Z,43.22
2022-07-25T02:51:03.972Z,43.20
2022-07-25T02:56:09.476Z,43.21
2022-07-25T03:01:15.137Z,43.13
2022-07-25T03:06:20.803Z,43.12
2022-07-25T03:11:26.246Z,43.08
2022-07-25T03:16:31.803Z,43.00
2022-07-25T03:21:41.178Z,42.96
2022-07-25T03:26:46.688Z,42.89
2022-07-25T03:31:52.215Z,42.81
2022-07-25T03:36:57.712Z,42.82
2022-07-25T03:42:03.155Z,42.67
2022-07-25T03:47:08.950Z,42.54
2022-07-25T03:52:16.105Z,42.57
2022-07-25T03:57:21.613Z,42.45
2022-07-25T04:02:27.354Z,42.34
2022-07-25T04:07:32.783Z,42.18
2022-07-25T04:12:39.060Z,42.10
2022-07-25T04:17:44.491Z,41.99
2022-07-25T04:22:51.153Z,41.94
2022-07-25T04:27:56.587Z,41.82
2022-07-25T04:33:02.021Z,41.89
2022-07-25T04:38:11.939Z,41.77
2022-07-25T04:43:14.684Z,41.70
2022-07-25T04:48:20.245Z,42.12
2022-07-25T04:53:25.703Z,41.82
2022-07-25T04:58:32.303Z,41.72
2022-07-25T05:03:37.741Z,41.42
2022-07-25T05:08:43.181Z,40.97
2022-07-25T05:13:49.278Z,40.64
2022-07-25T05:18:54.732Z,40.25
2022-07-25T05:24:00.236Z,40.28
2022-07-25T05:29:05.743Z,39.97
2022-07-25T05:34:11.325Z,39.88
2022-07-25T05:39:17.408Z,39.77
2022-07-25T05:44:22.925Z,39.65
2022-07-25T05:49:28.424Z,39.43
2022-07-25T05:54:34.788Z,39.21
2022-07-25T05:59:40.298Z,38.81
2022-07-25T06:04:45.762Z,38.56
2022-07-25T06:09:51.193Z,38.66
2022-07-25T06:14:56.785Z,38.65
2022-07-25T06:20:02.647Z,38.38
2022-07-25T06:25:10.062Z,38.49
2022-07-25T06:30:20.155Z,38.34
2022-07-25T06:35:23.196Z,38.29
2022-07-25T06:40:28.946Z,38.29
2022-07-25T06:45:34.443Z,38.35
2022-07-25T06:50:39.874Z,38.36
2022-07-25T06:55:45.673Z,38.36
2022-07-25T07:00:51.352Z,38.33
2022-07-25T07:05:56.840Z,38.11
2022-07-25T07:11:02.477Z,38.25
2022-07-25T07:16:08.249Z,38.15
2022-07-25T07:21:20.955Z,38.15
2022-07-25T07:26:21.101Z,37.94
2022-07-25T07:31:27.698Z,38.00
2022-07-25T07:36:33.380Z,37.73
2022-07-25T07:41:38.881Z,37.64
2022-07-25T07:46:44.483Z,37.27
2022-07-25T07:51:50.084Z,36.89
2022-07-25T07:56:55.794Z,36.63
2022-07-25T08:02:01.380Z,36.33
2022-07-25T08:07:06.844Z,36.06
2022-07-25T08:12:12.299Z,35.93
2022-07-25T08:17:17.812Z,35.81
2022-07-25T08:22:23.723Z,35.55
2022-07-25T08:27:29.218Z,35.42
2022-07-25T08:32:35.066Z,35.10
2022-07-25T08:37:40.496Z,34.88
2022-07-25T08:42:46.464Z,34.62
2022-07-25T08:47:54.679Z,34.37
2022-07-25T08:53:30.422Z,34.32
2022-07-25T08:58:07.491Z,34.12
2022-07-25T09:03:13.543Z,34.01
2022-07-25T09:08:19.736Z,33.78
2022-07-25T09:13:25.258Z,33.62
2022-07-25T09:18:32.331Z,33.53
2022-07-25T09:23:40.078Z,33.22
2022-07-25T09:28:47.218Z,33.01
2022-07-25T09:33:59.899Z,32.72
2022-07-25T09:39:06.642Z,32.53
2022-07-25T09:44:23.849Z,32.51
2022-07-25T09:49:41.198Z,32.21
2022-07-25T09:54:46.646Z,32.00
2022-07-25T09:59:52.151Z,31.68
2022-07-25T10:05:15.972Z,31.75
2022-07-25T10:10:27.270Z,31.30
2022-07-25T10:15:47.703Z,31.43
2022-07-25T10:20:56.520Z,31.11
2022-07-25T10:26:05.137Z,31.04
2022-07-25T10:31:25.652Z,31.05
2022-07-25T10:36:45.965Z,30.92
2022-07-25T10:41:59.389Z,30.57
2022-07-25T10:47:10.406Z,30.45
2022-07-25T10:52:18.708Z,30.12
2022-07-25T10:57:27.209Z,30.10
2022-07-25T11:02:32.847Z,29.90
2022-07-25T11:07:38.446Z,29.71
2022-07-25T11:12:45.874Z,29.78
2022-07-25T11:17:53.193Z,29.42
2022-07-25T11:22:58.783Z,29.48
2022-07-25T11:28:04.363Z,29.33
2022-07-25T11:33:14.484Z,29.15
2022-07-25T11:38:18.564Z,28.98
2022-07-25T11:43:26.150Z,29.01
2022-07-25T11:48:34.373Z,28.52
2022-07-25T11:53:45.279Z,28.31
2022-07-25T11:59:01.228Z,28.53
2022-07-25T12:04:11.933Z,28.45
2022-07-25T12:09:20.573Z,28.27
2022-07-25T12:14:26.906Z,28.01
2022-07-25T12:19:32.433Z,28.02
2022-07-25T12:24:37.880Z,27.93
2022-07-25T12:29:43.335Z,27.74
2022-07-25T12:34:48.770Z,27.51
2022-07-25T12:39:55.155Z,27.52
2022-07-25T12:45:00.644Z,27.52
2022-07-25T12:50:07.537Z,27.20
2022-07-25T12:55:15.917Z,27.14
2022-07-25T13:00:23.380Z,27.05
2022-07-25T13:05:29.876Z,27.08
2022-07-25T13:10:35.418Z,26.90
2022-07-25T13:15:41.015Z,26.56
2022-07-25T13:20:46.456Z,27.04
2022-07-25T13:25:51.943Z,26.76
2022-07-25T13:30:57.437Z,26.59
2022-07-25T13:36:02.878Z,26.50
2022-07-25T13:41:08.744Z,26.69
2022-07-25T13:46:14.666Z,26.66
2022-07-25T13:51:20.197Z,26.51
2022-07-25T13:56:26.022Z,26.21
2022-07-25T14:01:31.621Z,26.26
2022-07-25T14:06:37.445Z,26.44
2022-07-25T14:11:42.891Z,26.53
2022-07-25T14:16:48.973Z,26.91
2022-07-25T14:21:54.501Z,27.12
2022-07-25T14:27:00.646Z,26.78
2022-07-25T14:32:07.938Z,26.76
2022-07-25T14:37:14.416Z,26.90
2022-07-25T14:42:20.017Z,26.95
2022-07-25T14:47:27.271Z,26.68
2022-07-25T14:52:32.851Z,26.42
2022-07-25T14:57:38.657Z,26.37
2022-07-25T15:02:44.149Z,26.40
2022-07-25T15:07:49.673Z,26.35
2022-07-25T15:13:20.472Z,26.01
2022-07-25T15:18:02.239Z,26.17
2022-07-25T15:23:07.751Z,25.79
2022-07-25T15:28:14.014Z,25.79
2022-07-25T15:33:20.543Z,25.81
2022-07-25T15:38:26.354Z,25.45
2022-07-25T15:43:33.380Z,25.30
2022-07-25T15:48:39.053Z,25.38
2022-07-25T15:53:44.651Z,25.61
2022-07-25T15:58:50.613Z,26.09
2022-07-25T16:03:57.711Z,26.25
2022-07-25T16:09:03.627Z,25.88
2022-07-25T16:14:10.002Z,26.00
2022-07-25T16:19:15.499Z,25.81
2022-07-25T16:24:21.000Z,26.02
2022-07-25T16:29:27.004Z,25.80
2022-07-25T16:34:33.915Z,25.45
2022-07-25T16:39:39.432Z,25.20
2022-07-25T16:44:45.049Z,25.12
2022-07-25T16:49:50.565Z,25.21
2022-07-25T16:54:56.018Z,25.31
2022-07-25T17:00:01.537Z,25.39
2022-07-25T17:05:07.482Z,25.61
2022-07-25T17:10:13.285Z,25.79
2022-07-25T17:15:20.305Z,26.09
2022-07-25T17:20:26.214Z,26.31
2022-07-25T17:25:31.709Z,26.75
2022-07-25T17:30:37.218Z,27.15
2022-07-25T17:35:42.804Z,27.45
2022-07-25T17:40:48.223Z,27.93
2022-07-25T17:45:53.666Z,28.13
2022-07-25T17:50:59.097Z,28.51
2022-07-25T17:56:04.979Z,28.85
2022-07-25T18:01:11.450Z,29.62
2022-07-25T18:06:17.262Z,30.57
2022-07-25T18:11:22.807Z,31.94
2022-07-25T18:16:28.498Z,34.31
2022-07-25T18:21:34.130Z,36.16
2022-07-25T18:26:41.112Z,37.64
2022-07-25T18:31:49.650Z,39.53
2022-07-25T18:36:55.266Z,41.34
2022-07-25T18:42:00.792Z,42.94
2022-07-25T18:47:07.067Z,44.56
2022-07-25T18:52:13.383Z,45.90
2022-07-25T18:57:19.049Z,47.00
2022-07-25T19:02:24.963Z,48.10
2022-07-25T19:07:31.311Z,48.61
2022-07-25T19:12:37.201Z,49.54
2022-07-25T19:17:42.777Z,49.84
2022-07-25T19:22:48.297Z,50.85
2022-07-25T19:27:54.114Z,50.82
2022-07-25T19:32:59.571Z,51.10
2022-07-25T19:38:08.241Z,51.74
2022-07-25T19:43:16.064Z,52.11
2022-07-25T19:48:23.283Z,52.31
2022-07-25T19:53:30.611Z,52.69
2022-07-25T19:58:38.977Z,52.78
2022-07-25T20:03:43.352Z,52.82
2022-07-25T20:08:49.229Z,53.11
2022-07-25T20:13:54.881Z,53.57
2022-07-25T20:19:00.725Z,53.74
2022-07-25T20:24:06.409Z,53.81
2022-07-25T20:29:11.902Z,54.09
2022-07-25T20:34:19.518Z,54.07
2022-07-25T20:39:26.443Z,54.16
2022-07-25T20:44:33.689Z,55.27
2022-07-25T20:49:39.159Z,55.86
2022-07-25T20:54:44.598Z,56.62
2022-07-25T20:59:51.079Z,57.22
2022-07-25T21:04:56.887Z,58.26
2022-07-25T21:10:02.450Z,58.56
2022-07-25T21:15:09.818Z,59.03
2022-07-25T21:20:16.196Z,59.38
2022-07-25T21:25:22.070Z,60.32
2022-07-25T21:30:27.705Z,60.83
2022-07-25T21:35:33.174Z,61.04
2022-07-25T21:40:41.442Z,61.45
2022-07-25T21:45:47.206Z,61.66
2022-07-25T21:50:52.919Z,60.53
2022-07-25T21:55:58.533Z,62.47
2022-07-25T22:01:04.147Z,63.26
2022-07-25T22:06:10.374Z,64.74
2022-07-25T22:11:38.508Z,65.42
2022-07-25T22:16:24.244Z,65.80
2022-07-25T22:21:29.955Z,66.84
2022-07-25T22:26:35.556Z,67.88
2022-07-25T22:31:41.161Z,68.55
2022-07-25T22:36:46.741Z,68.82
2022-07-25T22:41:52.498Z,69.22
2022-07-25T22:46:58.039Z,69.79
2022-07-25T22:52:03.681Z,69.39
2022-07-25T22:57:09.231Z,70.37
2022-07-25T23:02:14.691Z,70.37
2022-07-25T23:07:20.172Z,71.08
2022-07-25T23:12:25.781Z,71.44
2022-07-25T23:17:31.414Z,71.60
2022-07-25T23:22:36.865Z,71.69
2022-07-25T23:27:42.337Z,71.50
2022-07-25T23:32:47.940Z,71.28
2022-07-25T23:37:53.369Z,71.69
2022-07-25T23:42:58.889Z,71.37
2022-07-25T23:48:05.926Z,71.42
2022-07-25T23:53:11.471Z,71.53
2022-07-25T23:58:16.977Z,71.79
